Time;durP1;ratioP1;P1;durP2;ratioP2;P2;SDS_P1;SDS_P2;PMS_P1;PMS_P2;Temp;Humidity;BMP_temperature;BMP_pressure;BME280_temperature;BME280_humidity;BME280_pressure;Samples;Min_cycle;Max_cycle;Signal;HPM_P1;HPM_P2
2022/05/10 04:19:10;;;;;;;12.67;9.20;;;;;;;13.31;100.00;100987.81;6602535;26;582266;-88
2022/05/10 04:22:15;;;;;;;9.23;8.32;;;;;;;13.31;100.00;100987.81;6618241;26;33646;-88
2022/05/10 04:25:48;;;;;;;11.35;8.20;;;;;;;12.94;100.00;100989.69;6566066;27;20040;-88
2022/05/10 04:28:52;;;;;;;8.90;8.00;;;;;;;13.05;100.00;100994.47;6561897;27;33427;-88
2022/05/10 04:35:33;;;;;;;9.82;7.72;;;;;;;13.45;100.00;100999.56;6567232;26;20031;-90
2022/05/10 04:38:35;;;;;;;9.68;7.50;;;;;;;13.73;100.00;101004.31;6588742;26;31911;-89
2022/05/10 04:41:44;;;;;;;10.73;8.23;;;;;;;13.79;100.00;101002.28;6613246;26;33874;-89
2022/05/10 04:44:47;;;;;;;10.18;8.82;;;;;;;13.95;100.00;101013.84;6607588;27;34184;-89
2022/05/10 04:47:50;;;;;;;9.23;8.32;;;;;;;14.19;100.00;101013.47;6622819;26;34451;-89
2022/05/10 04:50:53;;;;;;;11.75;8.70;;;;;;;14.41;100.00;101013.13;6598529;27;34988;-89
2022/05/10 04:53:56;;;;;;;11.27;8.40;;;;;;;14.44;100.00;101014.78;6588418;27;32514;-88
2022/05/10 04:56:59;;;;;;;8.73;7.30;;;;;;;14.82;97.36;101016.25;6593707;27;32881;-88
2022/05/10 05:00:06;;;;;;;7.78;6.97;;;;;;;15.12;95.27;101018.06;6594083;27;33523;-88
2022/05/10 05:03:09;;;;;;;8.57;7.10;;;;;;;15.57;92.00;101019.91;6594246;27;32891;-88
2022/05/10 05:06:12;;;;;;;6.80;6.20;;;;;;;15.56;91.11;101023.53;6613415;27;34852;-88
2022/05/10 05:09:19;;;;;;;9.00;6.47;;;;;;;16.06;87.84;101021.41;6613064;27;33930;-88
2022/05/10 05:12:22;;;;;;;8.88;7.10;;;;;;;16.06;86.53;101018.75;6593602;27;32817;-88
2022/05/10 05:15:25;;;;;;;8.50;6.35;;;;;;;16.32;82.86;101021.56;6593176;27;32825;-88
2022/05/10 05:18:28;;;;;;;8.68;6.45;;;;;;;16.35;81.87;101021.34;6610151;27;34947;-88
2022/05/10 05:21:31;;;;;;;8.73;6.57;;;;;;;16.56;80.38;101029.84;6587490;27;34233;-88
2022/05/10 05:24:33;;;;;;;7.10;5.97;;;;;;;16.89;79.03;101032.25;6586516;27;32906;-88
2022/05/10 05:27:36;;;;;;;8.55;5.87;;;;;;;16.79;78.91;101032.84;6586920;27;35624;-88
2022/05/10 05:30:42;;;;;;;9.55;6.22;;;;;;;16.88;79.06;101035.84;6607124;27;33728;-88
2022/05/10 05:33:45;;;;;;;9.13;6.60;;;;;;;17.30;77.61;101030.47;6606611;27;34249;-88
2022/05/10 05:37:32;;;;;;;9.63;6.40;;;;;;;17.76;75.60;101038.00;6589137;27;36921;-88
2022/05/10 05:40:17;;;;;;;9.23;6.37;;;;;;;17.75;74.60;101038.97;6587254;27;32493;-90
2022/05/10 05:43:22;;;;;;;7.57;5.90;;;;;;;18.42;71.93;101038.81;6586663;27;35785;-88
2022/05/10 05:46:26;;;;;;;8.75;5.97;;;;;;;18.12;69.38;101040.06;6588962;27;32435;-88
2022/05/10 05:49:28;;;;;;;7.80;5.10;;;;;;;18.85;68.55;101035.66;6587177;27;35669;-89
2022/05/10 05:52:32;;;;;;;10.27;5.82;;;;;;;19.26;65.24;101033.53;6588063;26;32818;-88
2022/05/10 05:55:35;;;;;;;10.23;6.20;;;;;;;19.49;64.99;101035.44;6588719;27;33210;-88
2022/05/10 05:58:39;;;;;;;9.13;6.18;;;;;;;19.60;66.85;101040.84;6607860;26;33635;-89
2022/05/10 06:01:41;;;;;;;10.73;5.55;;;;;;;19.87;65.72;101039.66;6586244;27;34796;-86
2022/05/10 06:04:44;;;;;;;6.22;5.45;;;;;;;19.73;64.40;101045.28;6605189;27;34431;-86
2022/05/10 06:07:47;;;;;;;9.38;5.55;;;;;;;20.26;61.54;101046.56;6606058;27;34158;-87
2022/05/10 06:10:52;;;;;;;7.55;5.05;;;;;;;20.62;59.28;101039.19;6589587;27;32548;-87
2022/05/10 06:13:57;;;;;;;5.93;4.65;;;;;;;21.30;59.79;101038.09;6597589;27;32768;-89
2022/05/10 06:17:01;;;;;;;8.38;5.20;;;;;;;22.23;52.56;101045.47;6587835;27;33573;-87
2022/05/10 06:20:09;;;;;;;7.62;4.57;;;;;;;21.76;53.69;101046.78;6606981;27;33976;-85
2022/05/10 06:23:12;;;;;;;6.97;4.80;;;;;;;20.98;55.93;101038.97;6589112;27;33390;-88
2022/05/10 06:26:15;;;;;;;7.10;5.10;;;;;;;20.30;57.43;101045.31;6607159;27;34404;-86
2022/05/10 06:29:18;;;;;;;6.28;4.95;;;;;;;20.32;58.27;101038.84;6607583;27;33980;-86
2022/05/10 06:32:26;;;;;;;5.82;5.22;;;;;;;20.30;59.02;101037.25;6607269;27;33645;-87
2022/05/10 06:35:29;;;;;;;8.05;4.95;;;;;;;20.55;59.11;101044.19;6606612;27;34543;-86
2022/05/10 06:38:34;;;;;;;9.10;4.62;;;;;;;20.51;60.29;101045.41;6607160;27;33732;-88
2022/05/10 06:41:37;;;;;;;5.57;4.97;;;;;;;20.77;56.29;101037.03;6589260;27;32293;-89
2022/05/10 06:44:40;;;;;;;8.13;4.70;;;;;;;20.89;56.76;101034.31;6607443;27;35187;-88
2022/05/10 06:47:46;;;;;;;6.80;4.97;;;;;;;20.82;58.04;101032.09;6608457;27;35183;-89
2022/05/10 06:50:48;;;;;;;8.00;4.82;;;;;;;21.21;55.75;101031.62;6607357;27;34097;-89
2022/05/10 06:53:53;;;;;;;11.07;6.25;;;;;;;21.09;55.25;101027.25;6587112;27;33465;-89
2022/05/10 06:56:56;;;;;;;6.82;4.87;;;;;;;21.62;53.04;101036.31;6606647;27;34315;-89
2022/05/10 06:59:59;;;;;;;7.37;4.93;;;;;;;21.81;50.42;101028.34;6586661;27;34040;-89
2022/05/10 07:03:31;;;;;;;30.23;9.63;;;;;;;22.21;49.47;101033.91;6589862;27;32668;-89
2022/05/10 07:06:35;;;;;;;9.13;5.40;;;;;;;22.18;52.35;101026.94;6602571;27;34856;-88
2022/05/10 07:09:37;;;;;;;8.18;5.20;;;;;;;22.52;52.11;101031.19;6608513;26;32112;-88
2022/05/10 07:12:42;;;;;;;10.77;5.40;;;;;;;22.47;48.77;101025.31;6606522;27;34517;-89
2022/05/10 07:15:46;;;;;;;14.35;6.53;;;;;;;23.21;49.01;101025.84;6606389;27;33722;-92
2022/05/10 07:18:49;;;;;;;7.80;5.12;;;;;;;23.83;46.81;101025.44;6605888;27;33288;-92
2022/05/10 07:21:51;;;;;;;5.12;4.60;;;;;;;23.85;46.31;101027.16;6617167;27;34052;-91
2022/05/10 07:24:55;;;;;;;47.75;13.85;;;;;;;23.44;45.96;101020.16;6611599;27;34093;-88
2022/05/10 07:27:58;;;;;;;7.97;5.15;;;;;;;23.50;47.16;101026.81;6606941;27;33884;-89
2022/05/10 07:31:01;;;;;;;6.65;4.95;;;;;;;23.11;48.49;101031.25;6606312;27;34562;-88
2022/05/10 07:34:05;;;;;;;11.12;5.45;;;;;;;23.35;48.36;101030.00;6606068;27;33744;-88
2022/05/10 07:37:08;;;;;;;7.00;5.20;;;;;;;23.45;47.19;101029.97;6607554;27;34127;-88
2022/05/10 07:40:12;;;;;;;6.53;4.90;;;;;;;23.69;47.18;101025.94;6588476;27;33272;-87
2022/05/10 07:43:16;;;;;;;6.80;4.90;;;;;;;23.09;48.35;101026.97;6620870;27;33778;-87
2022/05/10 07:46:20;;;;;;;5.47;4.70;;;;;;;23.95;46.46;101025.25;6599124;27;33510;-87
2022/05/10 07:49:23;;;;;;;7.22;4.37;;;;;;;24.56;44.09;101028.41;6587512;27;33026;-86
2022/05/10 07:52:25;;;;;;;5.93;4.62;;;;;;;24.77;42.71;101025.41;6587613;26;32271;-87
2022/05/10 07:55:28;;;;;;;6.80;4.10;;;;;;;23.58;46.24;101023.37;6592421;26;33240;-87
2022/05/10 07:58:32;;;;;;;6.37;4.40;;;;;;;24.35;42.37;101018.66;6617458;27;34384;-88
2022/05/10 08:01:35;;;;;;;6.37;3.97;;;;;;;24.59;41.25;101019.94;6612370;26;33973;-87
2022/05/10 08:04:41;;;;;;;4.57;3.40;;;;;;;24.17;40.55;101015.94;6592456;27;33884;-89
2022/05/10 08:07:44;;;;;;;4.53;3.50;;;;;;;24.92;38.00;101014.03;6588946;27;32901;-86
2022/05/10 08:10:48;;;;;;;4.40;3.62;;;;;;;24.88;36.96;101012.63;6588924;27;33494;-88
2022/05/10 08:13:51;;;;;;;5.60;3.35;;;;;;;25.77;35.56;101014.50;6598356;27;33268;-89
2022/05/10 08:16:54;;;;;;;5.18;3.20;;;;;;;25.72;32.46;101012.28;6604135;27;33159;-89
2022/05/10 08:19:57;;;;;;;7.22;3.17;;;;;;;26.36;33.50;101006.47;6605071;27;33195;-89
2022/05/10 08:23:01;;;;;;;4.07;3.25;;;;;;;26.97;35.02;101010.88;6621014;27;35235;-88
2022/05/10 08:26:06;;;;;;;3.65;3.35;;;;;;;27.12;33.04;101007.44;6618025;27;34276;-89
2022/05/10 08:29:09;;;;;;;5.43;3.97;;;;;;;27.54;31.60;101000.06;6595975;27;33232;-88
2022/05/10 08:32:12;;;;;;;5.32;3.50;;;;;;;27.64;30.96;100998.06;6606531;27;33913;-89
2022/05/10 08:35:19;;;;;;;7.68;4.03;;;;;;;27.53;31.67;100996.53;6607127;27;33768;-88
2022/05/10 08:38:23;;;;;;;3.85;3.45;;;;;;;27.84;32.58;101001.22;6606703;27;33876;-88
2022/05/10 08:41:43;;;;;;;6.18;3.55;;;;;;;26.77;33.04;101002.13;6586379;27;33022;-89
2022/05/10 08:45:02;;;;;;;5.72;3.55;;;;;;;27.65;31.01;100999.75;6606935;27;33915;-89
2022/05/10 08:48:07;;;;;;;4.65;3.50;;;;;;;28.05;30.51;100990.75;6612747;27;34310;-89
2022/05/10 08:51:09;;;;;;;4.97;3.33;;;;;;;28.24;32.21;100989.50;6618202;27;34023;-89
2022/05/10 08:54:13;;;;;;;5.15;3.40;;;;;;;28.65;28.93;100991.12;6587552;27;32700;-89
2022/05/10 08:57:49;;;;;;;6.28;3.42;;;;;;;28.21;28.86;100984.38;6588804;27;32885;-89
2022/05/10 09:01:00;;;;;;;6.03;3.23;;;;;;;27.42;29.04;100984.12;6591630;27;32963;-90
2022/05/10 09:04:26;;;;;;;9.02;2.90;;;;;;;28.65;29.29;100982.94;6589247;27;32416;-88
2022/05/10 09:07:59;;;;;;;3.30;3.10;;;;;;;29.28;26.82;100976.47;6587025;27;34730;-88
2022/05/10 09:11:04;;;;;;;4.72;3.15;;;;;;;29.45;27.65;100971.66;6606998;27;34369;-89
2022/05/10 09:14:12;;;;;;;6.80;3.75;;;;;;;30.25;26.53;100982.03;6588503;27;32755;-89
2022/05/10 09:17:18;;;;;;;7.82;3.12;;;;;;;30.40;27.35;100965.56;6589030;27;32302;-89
2022/05/10 09:20:21;;;;;;;5.37;3.50;;;;;;;30.75;25.86;100971.22;6608478;27;33915;-88
2022/05/10 09:23:45;;;;;;;5.25;3.58;;;;;;;30.83;26.21;100967.53;6588752;27;33544;-88
2022/05/10 09:26:52;;;;;;;6.55;3.30;;;;;;;29.28;27.02;100966.41;6588301;27;33083;-88
2022/05/10 09:29:55;;;;;;;4.10;3.28;;;;;;;29.50;28.23;100965.69;6588540;27;32611;-88
2022/05/10 09:36:46;;;;;;;3.70;3.35;;;;;;;29.73;26.23;100966.41;6588987;27;33236;-89
2022/05/10 09:39:55;;;;;;;6.00;3.50;;;;;;;30.33;27.97;100967.41;6609164;27;34835;-88
2022/05/10 09:43:25;;;;;;;5.20;3.67;;;;;;;29.82;28.28;100964.44;6588939;27;32541;-89
2022/05/10 09:46:30;;;;;;;5.87;3.60;;;;;;;29.08;28.37;100963.34;6586952;27;32654;-87
2022/05/10 09:49:36;;;;;;;4.97;3.60;;;;;;;28.84;27.60;100962.50;6606573;27;34569;-87
2022/05/10 09:52:40;;;;;;;5.45;3.60;;;;;;;27.90;29.38;100964.22;6587046;26;34711;-88
2022/05/10 09:56:05;;;;;;;6.30;3.80;;;;;;;27.55;29.96;100960.94;6588427;27;32439;-89
2022/05/10 09:59:11;;;;;;;5.60;4.10;;;;;;;26.42;32.59;100957.88;6606618;27;34704;-89
2022/05/10 10:02:37;;;;;;;7.20;3.80;;;;;;;26.63;31.62;100954.66;6607078;27;33671;-90
2022/05/10 10:05:40;;;;;;;5.78;3.80;;;;;;;26.40;32.82;100951.75;6606126;27;34392;-87
2022/05/10 10:08:54;;;;;;;6.07;3.95;;;;;;;25.81;34.46;100953.41;6606539;27;33928;-88
2022/05/10 10:11:58;;;;;;;5.50;3.90;;;;;;;25.28;34.81;100947.97;6586878;27;33649;-88
2022/05/10 10:15:17;;;;;;;5.20;4.03;;;;;;;26.56;34.38;100938.19;6610862;27;33930;-87
2022/05/10 10:18:42;;;;;;;8.30;4.03;;;;;;;27.74;31.45;100926.16;6613994;27;33995;-87
2022/05/10 10:22:09;;;;;;;5.75;4.10;;;;;;;28.85;29.01;100934.16;6620377;27;34084;-88
2022/05/10 10:25:28;;;;;;;6.32;3.92;;;;;;;29.44;28.83;100926.25;6596270;27;32141;-87
2022/05/10 10:28:41;;;;;;;5.62;3.95;;;;;;;31.20;26.24;100920.81;6589445;27;33110;-87
2022/05/10 10:31:50;;;;;;;8.50;3.67;;;;;;;33.87;22.76;100924.38;6610020;27;34656;-87
2022/05/10 10:35:13;;;;;;;7.47;4.00;;;;;;;34.35;22.66;100920.34;6588036;27;33726;-87
2022/05/10 10:38:23;;;;;;;4.55;3.90;;;;;;;32.64;22.42;100911.06;6591479;27;33180;-86
2022/05/10 10:41:38;;;;;;;5.90;3.42;;;;;;;33.05;23.48;100907.28;6616671;27;34043;-87
2022/05/10 10:44:45;;;;;;;5.37;3.55;;;;;;;30.13;26.71;100907.84;6623137;27;34030;-87
2022/05/10 10:48:03;;;;;;;6.28;4.00;;;;;;;30.05;27.17;100905.19;6624457;26;35226;-87
2022/05/10 10:51:09;;;;;;;6.03;4.00;;;;;;;30.21;26.42;100898.69;6604203;27;34281;-92
2022/05/10 10:54:21;;;;;;;6.15;4.07;;;;;;;29.67;27.48;100898.00;6617140;26;35058;-89
2022/05/10 10:57:46;;;;;;;12.13;4.50;;;;;;;29.11;28.21;100888.37;6616952;27;34288;-89
2022/05/10 11:01:01;;;;;;;4.97;3.47;;;;;;;29.92;27.58;100882.09;6609236;27;34586;-90
2022/05/10 11:04:29;;;;;;;4.62;3.67;;;;;;;29.75;27.40;100889.69;6591484;27;33813;-89
2022/05/10 11:08:08;;;;;;;5.18;4.30;;;;;;;28.49;30.05;100888.41;6590155;27;34186;-91
2022/05/10 11:11:26;;;;;;;6.62;4.30;;;;;;;27.78;30.72;100881.16;6588257;27;32873;-89
2022/05/10 11:14:29;;;;;;;4.82;4.00;;;;;;;27.05;31.46;100876.59;6587869;27;32915;-88
2022/05/10 11:17:57;;;;;;;5.32;3.85;;;;;;;26.70;31.97;100875.97;6587902;27;34266;-87
2022/05/10 11:21:20;;;;;;;7.78;3.80;;;;;;;26.31;33.76;100883.78;6587577;27;33589;-90
2022/05/10 11:24:36;;;;;;;7.78;4.12;;;;;;;25.51;35.08;100879.56;6586986;27;33537;-86
2022/05/10 11:27:42;;;;;;;29.17;8.77;;;;;;;25.05;35.80;100887.94;6613211;27;34709;-85
2022/05/10 11:31:00;;;;;;;13.20;5.32;;;;;;;24.56;37.08;100875.69;6610307;27;34212;-85
2022/05/10 11:34:18;;;;;;;15.52;6.15;;;;;;;24.02;38.49;100869.22;6596764;27;32579;-84
2022/05/10 11:37:29;;;;;;;8.35;4.30;;;;;;;24.35;39.03;100858.72;6596760;27;34381;-83
2022/05/10 11:41:08;;;;;;;7.37;4.10;;;;;;;25.33;37.90;100850.63;6595712;27;33432;-85
2022/05/10 11:44:13;;;;;;;5.32;4.18;;;;;;;25.60;36.21;100854.19;6561009;27;32574;-84
2022/05/10 11:47:51;;;;;;;4.22;3.80;;;;;;;25.66;36.63;100858.94;6611143;27;35977;-84
2022/05/10 11:55:11;;;;;;;9.70;5.00;;;;;;;25.72;36.15;100840.28;6610313;27;34251;-83
2022/05/10 11:58:21;;;;;;;11.25;4.37;;;;;;;25.56;37.17;100848.19;6581923;27;33701;-84
2022/05/10 12:01:49;;;;;;;5.55;4.47;;;;;;;25.78;37.48;100836.87;6609828;27;34093;-84
2022/05/10 12:05:12;;;;;;;6.43;4.32;;;;;;;25.79;36.16;100831.31;6609298;27;35372;-85
2022/05/10 12:08:15;;;;;;;8.18;4.28;;;;;;;24.87;37.95;100827.31;6609810;27;34230;-84
2022/05/10 12:11:33;;;;;;;6.87;4.37;;;;;;;25.63;38.61;100831.25;6612182;27;34150;-84
2022/05/10 12:21:38;;;;;;;4.30;3.72;;;;;;;25.24;39.02;100816.31;6589957;27;32314;-84
2022/05/10 12:24:46;;;;;;;5.90;3.97;;;;;;;25.12;38.42;100816.59;6609964;27;34477;-83
2022/05/10 12:28:00;;;;;;;5.53;3.67;;;;;;;24.47;39.90;100807.84;6610170;27;33727;-83
2022/05/10 12:31:55;;;;;;;4.78;3.50;;;;;;;24.57;38.43;100799.59;6613240;27;34051;-84
2022/05/10 12:35:01;;;;;;;6.22;3.53;;;;;;;24.92;38.30;100799.69;6503291;27;33871;-84
2022/05/10 12:38:06;;;;;;;5.97;3.70;;;;;;;24.37;38.66;100788.09;6486490;27;31986;-84
2022/05/10 12:41:23;;;;;;;4.00;3.30;;;;;;;24.55;38.06;100784.50;6506210;27;33951;-83
2022/05/10 12:44:55;;;;;;;5.05;3.37;;;;;;;24.34;37.67;100777.56;6509778;27;34065;-84
2022/05/10 12:48:08;;;;;;;7.60;3.67;;;;;;;24.31;37.75;100767.03;6509234;27;33837;-85
2022/05/10 12:51:43;;;;;;;4.55;3.30;;;;;;;24.02;38.01;100760.84;6504394;27;34617;-84
2022/05/10 12:54:51;;;;;;;8.18;3.80;;;;;;;23.68;38.89;100756.97;6499212;27;34372;-85
2022/05/10 12:58:03;;;;;;;4.68;3.62;;;;;;;23.63;40.46;100748.44;6484443;27;32741;-86
2022/05/10 13:01:07;;;;;;;8.13;3.42;;;;;;;23.95;39.22;100749.75;6477621;27;34232;-87
2022/05/10 13:04:20;;;;;;;6.62;4.07;;;;;;;23.35;39.95;100739.50;6510665;27;33879;-86
2022/05/10 13:07:33;;;;;;;5.00;3.80;;;;;;;23.14;40.22;100729.78;6588100;27;32710;-87
2022/05/10 13:10:37;;;;;;;9.25;3.55;;;;;;;23.51;39.69;100733.41;6608092;27;34360;-85
2022/05/10 13:13:40;;;;;;;7.45;3.83;;;;;;;23.97;39.75;100717.09;6611386;27;34038;-84
2022/05/10 13:16:50;;;;;;;3.90;3.30;;;;;;;23.84;39.63;100717.50;6593158;27;33846;-85
2022/05/10 13:19:55;;;;;;;4.80;3.83;;;;;;;23.68;38.43;100708.22;6613987;27;34195;-84
2022/05/10 13:23:03;;;;;;;5.50;3.80;;;;;;;22.97;39.60;100702.50;6614627;27;33955;-84
2022/05/10 13:26:09;;;;;;;4.25;3.62;;;;;;;22.94;39.32;100699.25;6596127;27;32278;-85
2022/05/10 13:29:13;;;;;;;5.80;3.75;;;;;;;23.20;40.27;100696.69;6617708;27;34273;-85
2022/05/10 13:32:47;;;;;;;4.82;3.70;;;;;;;23.38;38.48;100690.50;6613147;27;34336;-86
2022/05/10 13:35:56;;;;;;;8.90;4.30;;;;;;;23.63;38.36;100688.03;6572328;27;32707;-86
2022/05/10 13:38:59;;;;;;;6.37;3.58;;;;;;;24.01;39.29;100693.25;6610330;27;34938;-85
2022/05/10 13:42:08;;;;;;;3.95;3.47;;;;;;;24.16;38.55;100672.75;6612562;27;34309;-85
2022/05/10 13:45:19;;;;;;;11.93;3.72;;;;;;;24.13;37.37;100664.94;6618134;27;33830;-85
2022/05/10 13:48:37;;;;;;;4.45;3.42;;;;;;;24.48;37.59;100663.13;6623533;27;35240;-86
2022/05/10 13:51:47;;;;;;;5.45;3.42;;;;;;;24.82;35.74;100658.72;6624087;26;33886;-87
2022/05/10 13:54:57;;;;;;;6.07;3.30;;;;;;;24.41;37.25;100658.50;6622825;27;34835;-87
2022/05/10 13:58:04;;;;;;;3.60;3.03;;;;;;;23.74;37.98;100654.44;6595538;27;33432;-86
2022/05/10 14:01:09;;;;;;;4.85;3.12;;;;;;;23.67;36.03;100654.22;6609859;27;34623;-87
2022/05/10 14:04:16;;;;;;;3.62;3.20;;;;;;;23.98;36.34;100645.66;6593589;27;33526;-88
2022/05/10 14:07:29;;;;;;;9.85;3.87;;;;;;;24.24;35.42;100639.44;6597874;27;32531;-86
2022/05/10 14:10:37;;;;;;;6.50;3.58;;;;;;;24.31;35.93;100637.78;6587290;27;33499;-85
2022/05/10 14:13:52;;;;;;;4.75;3.58;;;;;;;24.26;35.12;100644.69;6606422;27;34368;-87
2022/05/10 14:16:57;;;;;;;4.72;3.83;;;;;;;24.27;36.51;100639.09;6587046;27;34111;-85
2022/05/10 14:20:19;;;;;;;5.90;3.50;;;;;;;24.44;35.76;100641.91;6587387;27;35081;-86
2022/05/10 14:23:23;;;;;;;4.20;3.80;;;;;;;24.47;34.54;100639.75;6606354;27;34052;-87
2022/05/10 14:26:29;;;;;;;7.20;3.70;;;;;;;24.76;34.31;100629.53;6606205;27;33936;-87
2022/05/10 14:29:39;;;;;;;6.20;3.40;;;;;;;24.70;35.00;100624.75;6606171;27;33580;-86
2022/05/10 14:32:41;;;;;;;3.85;3.12;;;;;;;24.58;35.29;100626.87;6606731;27;34908;-86
2022/05/10 14:35:48;;;;;;;4.15;3.50;;;;;;;24.61;33.93;100618.44;6606094;27;34248;-87
2022/05/10 14:38:51;;;;;;;4.68;3.12;;;;;;;24.49;34.31;100626.03;6586598;27;32494;-86
2022/05/10 14:41:54;;;;;;;4.60;3.20;;;;;;;24.40;33.86;100619.72;6606147;27;33750;-87
2022/05/10 14:45:20;;;;;;;6.40;3.30;;;;;;;24.52;33.96;100612.12;6606227;27;34087;-87
2022/05/10 14:48:32;;;;;;;4.60;3.20;;;;;;;24.57;33.23;100609.78;6590038;27;33761;-86
2022/05/10 14:51:45;;;;;;;6.00;3.30;;;;;;;24.72;33.46;100611.88;6590689;27;33028;-87
2022/05/10 14:54:48;;;;;;;5.43;3.33;;;;;;;23.85;33.83;100608.16;6610055;27;34379;-86
2022/05/10 14:57:52;;;;;;;5.37;3.10;;;;;;;24.06;34.50;100609.66;6589344;27;33214;-86
2022/05/10 15:01:04;;;;;;;5.12;3.33;;;;;;;24.21;34.07;100604.50;6608656;27;33878;-86
2022/05/10 15:04:17;;;;;;;4.43;3.03;;;;;;;24.23;34.44;100603.34;6607543;27;34363;-87
2022/05/10 15:07:21;;;;;;;3.83;3.12;;;;;;;24.35;32.62;100606.63;6587673;27;34317;-85
2022/05/10 15:10:25;;;;;;;4.95;3.00;;;;;;;24.26;32.55;100599.47;6587854;27;32903;-86
2022/05/10 15:13:28;;;;;;;5.97;3.10;;;;;;;24.25;32.49;100597.78;6589463;27;33824;-86
2022/05/10 15:16:42;;;;;;;2.97;2.78;;;;;;;24.16;31.58;100593.31;6587992;27;33666;-88
2022/05/10 15:19:45;;;;;;;4.30;3.00;;;;;;;23.97;33.98;100600.59;6608083;27;34310;-86
2022/05/10 15:22:48;;;;;;;4.72;3.40;;;;;;;24.22;31.93;100598.94;6609260;27;34108;-86
2022/05/10 15:25:52;;;;;;;4.00;3.20;;;;;;;24.22;32.03;100600.78;6588566;27;32790;-87
2022/05/10 15:28:55;;;;;;;3.40;3.10;;;;;;;24.00;32.27;100600.31;6609178;27;35133;-90
2022/05/10 15:31:58;;;;;;;4.62;2.97;;;;;;;24.00;32.42;100594.88;6606433;27;34129;-90
2022/05/10 15:35:02;;;;;;;4.03;3.22;;;;;;;24.16;32.83;100596.87;6606939;27;33879;-90
